createdAt,value
2022-10-01T15:50:23.084Z,22.87
2022-10-01T15:53:45.769Z,23.48
2022-10-01T15:57:08.853Z,21.61
2022-10-01T16:00:57.575Z,21.39
2022-10-01T16:04:21.340Z,21.57
2022-10-01T16:07:50.465Z,21.40
2022-10-01T16:11:27.599Z,21.51
2022-10-01T16:15:06.103Z,21.84
2022-10-01T16:18:32.756Z,23.89
2022-10-01T16:22:24.330Z,22.97
2022-10-01T16:25:46.370Z,23.99
2022-10-01T16:29:14.548Z,24.01
2022-10-01T16:32:36.462Z,24.30
2022-10-01T16:36:10.868Z,24.28
2022-10-01T16:39:32.622Z,24.16
2022-10-01T16:42:54.888Z,21.99
2022-10-01T16:46:17.021Z,24.37
2022-10-01T16:49:38.991Z,22.84
2022-10-01T16:53:01.251Z,21.93
2022-10-01T16:56:27.027Z,23.80
2022-10-01T16:59:49.122Z,22.30
2022-10-01T17:03:20.593Z,21.76
2022-10-01T17:06:42.824Z,21.85
2022-10-01T17:10:06.319Z,21.66
2022-10-01T17:13:32.683Z,21.63
2022-10-01T17:16:54.657Z,21.75
2022-10-01T17:20:16.574Z,21.64
2022-10-01T17:23:38.390Z,21.60
2022-10-01T17:27:00.604Z,21.60
2022-10-01T17:30:22.641Z,21.56
2022-10-01T17:33:44.560Z,21.65
2022-10-01T17:37:06.517Z,21.70
2022-10-01T17:40:28.370Z,21.69
2022-10-01T17:43:50.237Z,21.70
2022-10-01T17:47:12.491Z,21.64
2022-10-01T17:50:35.256Z,21.61
2022-10-01T17:53:57.057Z,21.65
2022-10-01T17:57:19.108Z,21.63
2022-10-01T18:00:41.994Z,21.60
2022-10-01T18:04:05.533Z,21.63
2022-10-01T18:07:27.475Z,21.98
2022-10-01T18:10:49.350Z,21.70
2022-10-01T18:14:11.442Z,21.63
2022-10-01T18:17:36.582Z,21.59
2022-10-01T18:21:07.751Z,22.34
2022-10-01T18:24:30.010Z,21.87
2022-10-01T18:27:51.909Z,22.67
2022-10-01T18:31:14.294Z,21.99
2022-10-01T18:34:47.367Z,23.84
2022-10-01T18:38:27.107Z,24.18
2022-10-01T18:41:50.260Z,21.96
2022-10-01T18:45:29.992Z,21.82
2022-10-01T18:49:21.111Z,21.67
2022-10-01T18:52:54.979Z,21.66
2022-10-01T18:56:36.053Z,21.73
2022-10-01T19:00:12.052Z,21.77
2022-10-01T19:04:01.225Z,22.02
2022-10-01T19:08:17.312Z,21.75
2022-10-01T19:12:02.855Z,21.77
2022-10-01T19:16:03.536Z,21.74
2022-10-01T19:20:01.872Z,21.79
2022-10-01T19:24:20.388Z,21.79
2022-10-01T19:28:10.057Z,21.81
2022-10-01T19:31:41.571Z,21.76
2022-10-01T19:35:16.815Z,22.19
2022-10-01T19:38:42.289Z,21.72
2022-10-01T19:42:17.174Z,21.77
2022-10-01T19:45:48.692Z,21.79
2022-10-01T19:49:28.255Z,24.14
2022-10-01T19:52:53.396Z,24.39
2022-10-01T19:56:30.988Z,24.51
2022-10-01T20:00:12.140Z,24.82
2022-10-01T20:03:40.213Z,22.89
2022-10-01T20:07:23.585Z,23.47
2022-10-01T20:11:28.561Z,24.93
2022-10-01T20:15:09.263Z,24.57
2022-10-01T20:19:08.045Z,23.72
2022-10-01T20:23:11.017Z,24.94
2022-10-01T20:26:47.818Z,25.11
2022-10-01T20:30:20.004Z,25.15
2022-10-01T20:34:03.657Z,25.13
2022-10-01T20:38:06.856Z,22.27
2022-10-01T20:41:42.372Z,22.12
2022-10-01T20:45:16.432Z,21.92
2022-10-01T20:48:47.417Z,21.88
2022-10-01T20:52:51.952Z,21.85
2022-10-01T20:56:30.837Z,21.87
2022-10-01T20:59:56.598Z,21.87
2022-10-01T21:03:36.429Z,21.84
2022-10-01T21:07:26.122Z,21.86
2022-10-01T21:10:56.271Z,21.90
2022-10-01T21:14:41.789Z,21.95
2022-10-01T21:18:20.371Z,21.73
2022-10-01T21:22:11.093Z,21.62
2022-10-01T21:26:13.604Z,21.71
2022-10-01T21:29:38.555Z,21.61
2022-10-01T21:33:21.261Z,21.57
2022-10-01T21:36:54.672Z,21.56
2022-10-01T21:40:47.476Z,21.61
2022-10-01T21:44:58.417Z,21.67
2022-10-01T21:48:38.682Z,21.65
2022-10-01T21:52:37.174Z,21.73
2022-10-01T21:56:32.661Z,21.75
2022-10-01T22:00:23.197Z,21.77
2022-10-01T22:03:56.449Z,21.78
2022-10-01T22:07:42.616Z,21.79
2022-10-01T22:11:15.777Z,21.78
2022-10-01T22:14:40.332Z,21.76
2022-10-01T22:18:06.086Z,21.79
2022-10-01T22:21:40.892Z,24.43
2022-10-01T22:25:04.186Z,24.95
2022-10-01T22:28:36.749Z,23.66
2022-10-01T22:32:04.641Z,21.96
2022-10-01T22:35:39.267Z,21.90
2022-10-01T22:39:09.610Z,21.92
2022-10-01T22:42:42.320Z,21.94
2022-10-01T22:46:42.398Z,22.12
2022-10-01T22:50:36.400Z,21.87
2022-10-01T22:54:04.007Z,21.89
2022-10-01T22:58:06.162Z,21.84
2022-10-01T23:02:25.991Z,21.83
2022-10-01T23:06:05.817Z,21.77
2022-10-01T23:09:40.465Z,21.78
2022-10-01T23:13:05.280Z,21.82
2022-10-01T23:16:52.272Z,21.86
2022-10-01T23:20:30.989Z,21.90
2022-10-01T23:24:17.827Z,21.92
2022-10-01T23:28:09.637Z,21.96
2022-10-01T23:31:57.712Z,21.96
2022-10-01T23:35:25.204Z,21.95
2022-10-01T23:39:26.034Z,22.02
2022-10-01T23:43:14.994Z,21.95
2022-10-01T23:46:42.758Z,21.96
2022-10-01T23:50:17.473Z,21.99
2022-10-01T23:53:57.452Z,22.07
2022-10-01T23:57:52.716Z,22.08
